Time;durP1;ratioP1;P1;durP2;ratioP2;P2;SDS_P1;SDS_P2;PMS_P1;PMS_P2;Temp;Humidity;BMP_temperature;BMP_pressure;BME280_temperature;BME280_humidity;BME280_pressure;Samples;Min_cycle;Max_cycle;Signal;HPM_P1;HPM_P2
2023/07/22 00:00:52;;;;;;;;;;;;;;;21.39;80.94;95110.31;4919038;29;976;-57
2023/07/22 00:03:18;;;;;;;;;;;;;;;21.04;82.56;95122.66;4918533;29;1988;-57
2023/07/22 00:05:44;;;;;;;;;;;;;;;20.89;83.32;95141.25;4918702;29;968;-57
2023/07/22 00:08:10;;;;;;;;;;;;;;;20.88;82.60;95130.59;4918460;29;1056;-57
2023/07/22 00:10:40;;;;;;;;;;;;;;;20.92;82.68;95138.06;4918450;29;1018;-57
2023/07/22 00:13:07;;;;;;;;;;;;;;;20.86;82.94;95133.53;4918526;29;1039;-57
2023/07/22 00:15:33;;;;;;;;;;;;;;;20.92;82.99;95142.66;4918210;29;1119;-57
2023/07/22 00:17:59;;;;;;;;;;;;;;;20.97;82.80;95145.53;4918368;29;1038;-57
2023/07/22 00:20:25;;;;;;;;;;;;;;;20.80;83.23;95148.03;4918181;29;1056;-57
2023/07/22 00:22:52;;;;;;;;;;;;;;;20.72;83.65;95148.31;4918078;29;1911;-57
2023/07/22 00:25:18;;;;;;;;;;;;;;;20.56;84.97;95147.78;4917948;29;983;-57
2023/07/22 00:27:43;;;;;;;;;;;;;;;20.52;84.73;95151.19;4918027;29;1035;-57
2023/07/22 00:30:10;;;;;;;;;;;;;;;20.55;84.42;95154.28;4934875;29;1146;-57
2023/07/22 00:32:40;;;;;;;;;;;;;;;20.59;85.00;95146.53;4936854;29;1051;-57
2023/07/22 00:35:07;;;;;;;;;;;;;;;20.55;84.18;95146.16;4937017;29;1050;-57
2023/07/22 00:37:33;;;;;;;;;;;;;;;20.87;82.24;95148.78;4936821;29;1038;-57
2023/07/22 00:39:59;;;;;;;;;;;;;;;20.95;82.07;95153.91;4936659;29;1058;-57
2023/07/22 00:42:25;;;;;;;;;;;;;;;20.78;82.72;95150.13;4936388;29;1911;-58
2023/07/22 00:44:51;;;;;;;;;;;;;;;20.52;84.21;95152.00;4936881;29;995;-57
2023/07/22 00:47:17;;;;;;;;;;;;;;;20.67;83.21;95149.81;4936520;29;1091;-57
2023/07/22 00:49:44;;;;;;;;;;;;;;;20.43;83.75;95143.34;4936576;29;1117;-57
2023/07/22 00:52:10;;;;;;;;;;;;;;;20.60;83.20;95148.22;4936418;29;1059;-57
2023/07/22 00:54:36;;;;;;;;;;;;;;;20.75;83.07;95151.41;4936516;29;1043;-57
2023/07/22 00:57:02;;;;;;;;;;;;;;;20.37;84.82;95160.50;4936857;29;1056;-57
2023/07/22 00:59:28;;;;;;;;;;;;;;;20.43;84.96;95159.63;4936751;29;1311;-57
2023/07/22 01:01:54;;;;;;;;;;;;;;;20.45;84.98;95156.66;4936803;29;1984;-58
2023/07/22 01:04:22;;;;;;;;;;;;;;;20.43;85.12;95169.63;4936568;29;1131;-58
2023/07/22 01:06:49;;;;;;;;;;;;;;;20.49;84.84;95168.78;4936563;29;974;-58
2023/07/22 01:09:15;;;;;;;;;;;;;;;20.49;83.91;95160.63;4936359;29;978;-58
2023/07/22 01:11:41;;;;;;;;;;;;;;;20.48;84.24;95158.94;4935961;29;1047;-57
2023/07/22 01:14:07;;;;;;;;;;;;;;;20.83;81.79;95148.41;4934903;29;1009;-57
2023/07/22 01:16:34;;;;;;;;;;;;;;;20.99;81.19;95146.16;4935353;29;1122;-57
2023/07/22 01:19:00;;;;;;;;;;;;;;;20.85;81.90;95151.72;4935800;29;960;-57
2023/07/22 01:21:26;;;;;;;;;;;;;;;20.61;82.95;95149.88;4934891;29;1051;-57
2023/07/22 01:23:52;;;;;;;;;;;;;;;20.56;83.27;95150.50;4936119;29;1907;-57
2023/07/22 01:26:20;;;;;;;;;;;;;;;20.57;83.10;95148.66;4936027;29;1130;-58
2023/07/22 01:28:46;;;;;;;;;;;;;;;20.49;83.85;95147.03;4930229;29;1166;-57
2023/07/22 01:31:11;;;;;;;;;;;;;;;20.53;83.45;95137.41;4917184;29;968;-57
2023/07/22 01:33:37;;;;;;;;;;;;;;;20.34;84.31;95152.00;4917177;29;1078;-57
2023/07/22 01:36:04;;;;;;;;;;;;;;;20.12;86.25;95154.25;4917053;29;991;-57
2023/07/22 01:38:31;;;;;;;;;;;;;;;20.27;85.28;95155.56;4917148;29;969;-57
2023/07/22 01:40:57;;;;;;;;;;;;;;;20.37;84.32;95152.34;4917220;29;1047;-57
2023/07/22 01:43:23;;;;;;;;;;;;;;;20.29;84.41;95145.31;4916933;29;1915;-58
2023/07/22 01:45:49;;;;;;;;;;;;;;;20.21;85.08;95139.34;4916922;29;1043;-58
2023/07/22 01:48:15;;;;;;;;;;;;;;;20.02;85.84;95141.16;4916773;29;1047;-58
2023/07/22 01:50:41;;;;;;;;;;;;;;;20.11;86.12;95147.13;4916833;29;1111;-58
2023/07/22 01:53:07;;;;;;;;;;;;;;;20.05;86.69;95148.84;4919664;29;1059;-58
2023/07/22 01:55:33;;;;;;;;;;;;;;;19.74;87.97;95155.13;4920959;29;971;-58
2023/07/22 01:57:59;;;;;;;;;;;;;;;19.62;88.85;95149.53;4920919;29;1059;-58
2023/07/22 02:00:26;;;;;;;;;;;;;;;19.60;88.62;95154.34;4920864;29;1031;-57
2023/07/22 02:02:52;;;;;;;;;;;;;;;19.80;88.08;95157.78;4920232;29;1914;-58
2023/07/22 02:05:18;;;;;;;;;;;;;;;19.79;87.57;95158.03;4920648;29;1052;-58
2023/07/22 02:07:44;;;;;;;;;;;;;;;19.78;87.81;95161.78;4920566;29;1059;-58
2023/07/22 02:10:10;;;;;;;;;;;;;;;19.95;87.32;95160.19;4920437;29;1044;-58
2023/07/22 02:12:36;;;;;;;;;;;;;;;20.04;86.92;95164.31;4920661;29;968;-58
2023/07/22 02:15:02;;;;;;;;;;;;;;;20.02;86.62;95161.00;4920641;29;1054;-57
2023/07/22 02:17:30;;;;;;;;;;;;;;;20.09;85.50;95153.63;4920468;29;987;-57
2023/07/22 02:19:56;;;;;;;;;;;;;;;20.03;86.06;95150.97;4920475;29;979;-57
2023/07/22 02:22:22;;;;;;;;;;;;;;;20.26;84.34;95153.06;4920076;29;1906;-57
2023/07/22 02:24:48;;;;;;;;;;;;;;;20.04;85.28;95149.91;4920267;29;1234;-56
2023/07/22 02:27:14;;;;;;;;;;;;;;;19.81;86.78;95155.94;4920325;29;969;-57
2023/07/22 02:29:40;;;;;;;;;;;;;;;19.65;87.79;95149.94;4933341;29;1205;-57
2023/07/22 02:32:06;;;;;;;;;;;;;;;19.62;88.34;95152.25;4939298;29;956;-57
2023/07/22 02:34:32;;;;;;;;;;;;;;;19.68;87.51;95152.19;4939070;29;1051;-57
2023/07/22 02:36:58;;;;;;;;;;;;;;;19.57;88.23;95161.03;4939089;29;1039;-57
2023/07/22 02:39:24;;;;;;;;;;;;;;;19.54;88.71;95156.06;4939167;29;1043;-57
2023/07/22 02:41:50;;;;;;;;;;;;;;;19.46;88.94;95159.84;4938978;29;1923;-58
2023/07/22 02:44:16;;;;;;;;;;;;;;;19.64;87.98;95155.56;4938904;29;1051;-57
2023/07/22 02:46:42;;;;;;;;;;;;;;;19.68;87.57;95157.63;4938951;29;1113;-57
2023/07/22 02:49:09;;;;;;;;;;;;;;;19.90;86.50;95143.75;4938875;29;1063;-57
2023/07/22 02:51:35;;;;;;;;;;;;;;;20.02;86.19;95152.03;4938785;29;1055;-57
2023/07/22 02:54:01;;;;;;;;;;;;;;;19.90;86.72;95151.91;4939009;29;1048;-57
2023/07/22 02:56:27;;;;;;;;;;;;;;;19.98;86.12;95159.78;4938865;29;1014;-57
2023/07/22 02:58:53;;;;;;;;;;;;;;;19.85;86.91;95163.41;4938824;29;1066;-58
2023/07/22 03:01:19;;;;;;;;;;;;;;;19.78;87.45;95162.59;4938711;29;1066;-58
2023/07/22 03:03:45;;;;;;;;;;;;;;;19.81;87.58;95169.50;4938578;29;1988;-58
2023/07/22 03:06:11;;;;;;;;;;;;;;;19.69;87.96;95163.88;4938437;29;1039;-58
2023/07/22 03:08:37;;;;;;;;;;;;;;;19.33;89.09;95169.91;4938796;29;1022;-57
2023/07/22 03:11:03;;;;;;;;;;;;;;;19.29;89.93;95164.94;4938665;29;1042;-56
2023/07/22 03:13:29;;;;;;;;;;;;;;;19.35;89.47;95156.97;4938532;29;1106;-56
2023/07/22 03:15:55;;;;;;;;;;;;;;;19.31;88.82;95161.97;4938505;29;1050;-56
2023/07/22 03:18:21;;;;;;;;;;;;;;;19.40;88.31;95157.97;4938352;29;1047;-56
2023/07/22 03:20:48;;;;;;;;;;;;;;;19.31;89.30;95170.09;4938282;29;1106;-56
2023/07/22 03:23:14;;;;;;;;;;;;;;;19.43;88.68;95176.53;4938069;29;1911;-56
2023/07/22 03:25:41;;;;;;;;;;;;;;;19.27;89.87;95166.16;4938457;29;1066;-56
2023/07/22 03:28:07;;;;;;;;;;;;;;;19.10;90.49;95176.66;4938104;29;1210;-56
2023/07/22 03:30:33;;;;;;;;;;;;;;;19.20;90.14;95173.50;4938597;29;991;-57
2023/07/22 03:33:00;;;;;;;;;;;;;;;19.22;91.40;95171.44;4938139;29;1055;-58
2023/07/22 03:35:27;;;;;;;;;;;;;;;19.47;89.36;95166.09;4936745;29;976;-58
2023/07/22 03:37:53;;;;;;;;;;;;;;;19.68;88.73;95173.06;4937988;29;1079;-57
2023/07/22 03:40:26;;;;;;;;;;;;;;;19.81;88.25;95167.59;4938093;29;985;-58
2023/07/22 03:42:53;;;;;;;;;;;;;;;19.69;88.80;95172.88;4937680;29;1980;-58
2023/07/22 03:45:20;;;;;;;;;;;;;;;19.55;89.47;95165.84;4937872;29;1052;-57
2023/07/22 03:48:35;;;;;;;;;;;;;;;19.62;89.67;95177.50;5133384;27;1310015;-57
2023/07/22 03:51:01;;;;;;;;;;;;;;;19.68;89.21;95178.50;5173058;27;1090;-58
2023/07/22 03:53:27;;;;;;;;;;;;;;;19.84;88.53;95180.75;5173198;27;986;-56
2023/07/22 03:55:53;;;;;;;;;;;;;;;19.69;89.87;95180.16;5173169;27;1031;-57
2023/07/22 03:58:19;;;;;;;;;;;;;;;19.55;90.37;95179.41;5172897;27;971;-57
2023/07/22 04:00:48;;;;;;;;;;;;;;;19.66;90.09;95191.44;5173033;27;1047;-57
2023/07/22 04:03:16;;;;;;;;;;;;;;;19.86;89.39;95191.34;5173002;27;1043;-58
2023/07/22 04:05:42;;;;;;;;;;;;;;;19.93;89.87;95194.84;5173054;27;999;-57
2023/07/22 04:08:11;;;;;;;;;;;;;;;20.02;89.57;95190.84;5154018;27;1990;-58
2023/07/22 04:10:37;;;;;;;;;;;;;;;20.20;87.53;95189.25;5172745;27;1042;-58
2023/07/22 04:13:03;;;;;;;;;;;;;;;20.29;87.75;95198.78;5172657;27;972;-58
2023/07/22 04:15:29;;;;;;;;;;;;;;;20.44;87.81;95196.56;5172864;27;1058;-57
2023/07/22 04:17:55;;;;;;;;;;;;;;;20.42;88.61;95198.69;5172834;27;944;-58
2023/07/22 04:20:24;;;;;;;;;;;;;;;20.56;88.41;95204.81;5172531;27;911;-58
2023/07/22 04:22:50;;;;;;;;;;;;;;;20.76;88.19;95207.41;5172538;27;1075;-58
2023/07/22 04:25:16;;;;;;;;;;;;;;;20.92;86.71;95210.59;5172542;27;1027;-58
2023/07/22 04:27:42;;;;;;;;;;;;;;;21.17;85.95;95211.41;5172366;27;2031;-57
2023/07/22 04:30:08;;;;;;;;;;;;;;;21.41;83.38;95214.25;5172553;27;1205;-58
2023/07/22 04:32:34;;;;;;;;;;;;;;;21.63;82.04;95206.50;5172484;27;948;-57
2023/07/22 04:35:00;;;;;;;;;;;;;;;21.83;80.65;95207.06;5172436;27;948;-57
2023/07/22 04:37:27;;;;;;;;;;;;;;;21.95;80.27;95204.38;5172342;27;1003;-57
2023/07/22 04:39:54;;;;;;;;;;;;;;;22.09;78.49;95213.19;5172262;27;1027;-57
2023/07/22 04:42:20;;;;;;;;;;;;;;;22.28;78.34;95229.50;5172081;27;973;-57
2023/07/22 04:44:46;;;;;;;;;;;;;;;22.38;78.65;95225.13;5172176;27;1086;-57
2023/07/22 04:47:12;;;;;;;;;;;;;;;22.48;78.22;95221.00;5171939;27;1914;-57
2023/07/22 04:49:38;;;;;;;;;;;;;;;22.61;76.66;95229.81;5172030;27;1090;-56
2023/07/22 04:52:05;;;;;;;;;;;;;;;22.83;77.01;95228.41;5153475;27;980;-56
2023/07/22 04:54:31;;;;;;;;;;;;;;;22.82;78.27;95222.13;5171896;27;1106;-57
2023/07/22 04:56:59;;;;;;;;;;;;;;;22.87;78.30;95221.44;5171845;27;1035;-57
2023/07/22 04:59:25;;;;;;;;;;;;;;;22.86;78.26;95234.25;5161403;27;992;-57
2023/07/22 05:01:52;;;;;;;;;;;;;;;22.98;77.88;95226.88;5158099;27;994;-57
2023/07/22 05:04:18;;;;;;;;;;;;;;;23.00;78.17;95232.09;5157902;27;960;-57
2023/07/22 05:06:44;;;;;;;;;;;;;;;23.14;76.99;95229.97;5157716;27;1917;-57
2023/07/22 05:09:10;;;;;;;;;;;;;;;23.16;77.64;95220.50;5157774;27;998;-57
2023/07/22 05:11:36;;;;;;;;;;;;;;;23.28;74.74;95227.84;5157691;27;948;-57
2023/07/22 05:14:02;;;;;;;;;;;;;;;23.50;75.23;95231.59;5157904;27;1034;-57
2023/07/22 05:16:28;;;;;;;;;;;;;;;23.68;71.83;95246.19;5157717;27;1032;-57
2023/07/22 05:18:54;;;;;;;;;;;;;;;23.81;71.85;95234.16;5157560;27;1111;-57
2023/07/22 05:21:19;;;;;;;;;;;;;;;23.86;73.05;95234.28;5157565;27;975;-57
2023/07/22 05:23:45;;;;;;;;;;;;;;;23.93;73.16;95243.97;5157524;27;1040;-57
2023/07/22 05:26:11;;;;;;;;;;;;;;;23.94;71.23;95233.88;5157338;27;1039;-57
2023/07/22 05:28:37;;;;;;;;;;;;;;;24.06;70.14;95239.31;5152186;27;1188;-57
2023/07/22 05:31:03;;;;;;;;;;;;;;;24.11;72.83;95240.25;5136799;27;1017;-58
2023/07/22 05:33:29;;;;;;;;;;;;;;;24.34;71.04;95243.94;5136413;27;1048;-58
2023/07/22 05:35:56;;;;;;;;;;;;;;;24.28;72.10;95237.56;5136507;27;1098;-57
2023/07/22 05:38:22;;;;;;;;;;;;;;;24.40;71.32;95237.50;5136402;27;1083;-56
2023/07/22 05:40:48;;;;;;;;;;;;;;;24.46;69.00;95239.22;5136397;27;982;-57
2023/07/22 05:43:14;;;;;;;;;;;;;;;24.69;68.13;95237.47;5136244;27;1161;-57
2023/07/22 05:45:40;;;;;;;;;;;;;;;24.83;67.26;95243.44;5136452;27;1064;-57
2023/07/22 05:48:06;;;;;;;;;;;;;;;25.08;67.62;95240.25;5136206;27;1909;-57
2023/07/22 05:50:32;;;;;;;;;;;;;;;25.28;69.58;95237.88;5136141;27;1103;-56
2023/07/22 05:52:58;;;;;;;;;;;;;;;25.29;70.13;95246.94;5136292;27;996;-56
2023/07/22 05:55:24;;;;;;;;;;;;;;;25.20;70.13;95242.94;5136046;27;972;-56
2023/07/22 05:57:50;;;;;;;;;;;;;;;25.25;69.76;95248.50;5135958;27;1052;-57
2023/07/22 06:00:17;;;;;;;;;;;;;;;25.53;70.26;95255.72;5136218;27;1047;-57
2023/07/22 06:02:43;;;;;;;;;;;;;;;25.47;69.85;95249.34;5136159;27;947;-57
2023/07/22 06:05:09;;;;;;;;;;;;;;;25.68;70.15;95252.38;5136064;27;1032;-57
2023/07/22 06:07:35;;;;;;;;;;;;;;;25.73;68.76;95252.47;5136037;27;1909;-58
2023/07/22 06:10:01;;;;;;;;;;;;;;;25.55;69.38;95256.31;5116824;28;953;-58
2023/07/22 06:12:46;;;;;;;;;;;;;;;25.74;69.83;95259.56;5136217;27;1537;-58
2023/07/22 06:15:32;;;;;;;;;;;;;;;25.65;68.02;95255.63;5135763;27;1563;-58
2023/07/22 06:18:18;;;;;;;;;;;;;;;25.77;67.90;95266.47;5135976;27;1528;-56
2023/07/22 06:20:44;;;;;;;;;;;;;;;25.98;66.87;95262.94;5135731;27;1047;-57
2023/07/22 06:23:10;;;;;;;;;;;;;;;26.20;67.22;95256.59;5135822;27;965;-58
2023/07/22 06:25:36;;;;;;;;;;;;;;;26.33;66.04;95258.94;5135847;27;1014;-57
2023/07/22 06:28:02;;;;;;;;;;;;;;;26.63;66.20;95265.84;5135747;27;1910;-59
2023/07/22 06:30:28;;;;;;;;;;;;;;;26.70;64.86;95261.00;5156206;27;1027;-58
2023/07/22 06:32:54;;;;;;;;;;;;;;;26.78;66.20;95260.50;5156287;27;1014;-57
2023/07/22 06:35:20;;;;;;;;;;;;;;;26.86;63.99;95271.00;5155938;27;1031;-58
2023/07/22 06:37:46;;;;;;;;;;;;;;;27.02;62.80;95268.41;5156310;27;1042;-58
2023/07/22 06:40:12;;;;;;;;;;;;;;;26.98;60.58;95261.78;5156137;27;1015;-58
2023/07/22 06:42:38;;;;;;;;;;;;;;;27.25;61.74;95265.31;5156210;27;1047;-58
2023/07/22 06:45:04;;;;;;;;;;;;;;;27.43;62.58;95263.22;5155965;27;1114;-58
2023/07/22 06:47:31;;;;;;;;;;;;;;;27.77;62.68;95258.19;5155686;27;1988;-58
2023/07/22 06:49:57;;;;;;;;;;;;;;;27.65;60.34;95260.34;5155816;27;1031;-58
2023/07/22 06:52:23;;;;;;;;;;;;;;;27.62;61.15;95255.38;5155917;27;975;-58
2023/07/22 06:54:49;;;;;;;;;;;;;;;27.69;60.18;95257.91;5155896;27;1007;-57
2023/07/22 06:57:15;;;;;;;;;;;;;;;27.57;60.04;95264.41;5155626;27;1047;-57
2023/07/22 06:59:41;;;;;;;;;;;;;;;27.75;60.31;95263.13;5155778;27;960;-58
2023/07/22 07:02:07;;;;;;;;;;;;;;;27.70;60.56;95265.88;5155644;27;1014;-58
2023/07/22 07:04:33;;;;;;;;;;;;;;;28.02;59.81;95256.69;5155442;27;1086;-59
2023/07/22 07:06:59;;;;;;;;;;;;;;;28.41;59.70;95259.03;5155723;27;1910;-59
2023/07/22 07:09:25;;;;;;;;;;;;;;;28.54;56.57;95250.28;5155633;27;973;-58
2023/07/22 07:11:51;;;;;;;;;;;;;;;28.61;59.62;95245.34;5155434;27;1090;-59
2023/07/22 07:14:18;;;;;;;;;;;;;;;28.54;59.78;95253.03;5155350;27;990;-58
2023/07/22 07:16:43;;;;;;;;;;;;;;;28.54;59.45;95250.28;5155455;27;940;-58
2023/07/22 07:19:10;;;;;;;;;;;;;;;28.79;59.45;95246.72;5155144;27;1018;-58
2023/07/22 07:21:36;;;;;;;;;;;;;;;28.86;57.08;95251.97;5154899;27;1042;-58
2023/07/22 07:24:02;;;;;;;;;;;;;;;29.15;58.68;95248.69;5155369;27;1070;-58
2023/07/22 07:26:28;;;;;;;;;;;;;;;29.00;57.04;95250.31;5155096;27;1975;-58
2023/07/22 07:28:54;;;;;;;;;;;;;;;29.05;60.57;95251.44;5147563;27;1192;-56
2023/07/22 07:31:19;;;;;;;;;;;;;;;29.07;57.22;95252.81;5134316;27;981;-57
2023/07/22 07:33:46;;;;;;;;;;;;;;;29.27;58.39;95257.50;5134327;27;1070;-57
2023/07/22 07:36:12;;;;;;;;;;;;;;;29.43;58.91;95255.56;5134554;27;1744;-57
2023/07/22 07:38:38;;;;;;;;;;;;;;;29.57;57.71;95259.38;5138492;27;1254;-57
2023/07/22 07:41:07;;;;;;;;;;;;;;;29.56;56.51;95254.16;5134154;27;1040;-57
2023/07/22 07:43:34;;;;;;;;;;;;;;;29.64;56.80;95242.56;5135149;27;1331;-58
2023/07/22 07:46:20;;;;;;;;;;;;;;;29.85;55.85;95250.81;5147697;27;1569;-57
2023/07/22 07:48:47;;;;;;;;;;;;;;;29.97;54.98;95257.66;5136553;27;1126;-57
2023/07/22 07:51:13;;;;;;;;;;;;;;;30.02;53.96;95259.56;5146092;27;1332;-55
2023/07/22 07:53:40;;;;;;;;;;;;;;;30.06;55.18;95259.81;5145640;27;1390;-56
2023/07/22 07:56:07;;;;;;;;;;;;;;;29.95;54.90;95261.78;5150724;27;1326;-57
2023/07/22 07:58:33;;;;;;;;;;;;;;;30.20;53.33;95262.78;5134158;28;957;-57
2023/07/22 08:00:59;;;;;;;;;;;;;;;30.45;51.63;95265.47;5133935;28;1043;-57
2023/07/22 08:03:25;;;;;;;;;;;;;;;30.59;50.33;95262.06;5133997;28;1578;-57
2023/07/22 08:05:51;;;;;;;;;;;;;;;30.49;52.60;95251.94;5135708;27;1780;-57
2023/07/22 08:08:17;;;;;;;;;;;;;;;30.54;52.23;95246.34;5147624;27;1883;-57
2023/07/22 08:10:44;;;;;;;;;;;;;;;30.65;50.61;95258.97;5151078;27;1590;-57
2023/07/22 08:13:10;;;;;;;;;;;;;;;30.56;51.38;95252.41;5144378;27;1261;-57
2023/07/22 08:15:36;;;;;;;;;;;;;;;30.52;52.29;95260.44;5147412;27;1639;-57
2023/07/22 08:18:03;;;;;;;;;;;;;;;30.90;51.91;95252.47;5149493;27;1697;-56
2023/07/22 08:20:30;;;;;;;;;;;;;;;31.01;50.58;95249.66;5147105;27;1769;-57
2023/07/22 08:22:56;;;;;;;;;;;;;;;31.04;51.74;95246.34;5136345;27;1516;-58
2023/07/22 08:25:22;;;;;;;;;;;;;;;31.21;51.75;95255.03;5148655;27;1744;-58
2023/07/22 08:27:48;;;;;;;;;;;;;;;31.32;51.07;95250.22;5154435;27;1909;-58
2023/07/22 08:30:14;;;;;;;;;;;;;;;31.48;50.97;95243.47;5135247;27;1145;-58
2023/07/22 08:32:40;;;;;;;;;;;;;;;31.65;48.79;95243.00;5137308;27;1946;-57
2023/07/22 08:35:06;;;;;;;;;;;;;;;31.75;48.99;95244.84;5157758;27;1873;-57
2023/07/22 08:37:32;;;;;;;;;;;;;;;31.83;47.68;95248.91;5146791;27;1039;-57
2023/07/22 08:39:58;;;;;;;;;;;;;;;31.92;49.74;95239.66;5143679;27;1815;-58
2023/07/22 08:42:25;;;;;;;;;;;;;;;31.77;48.09;95239.03;5139824;27;1082;-58
2023/07/22 08:44:56;;;;;;;;;;;;;;;31.92;50.17;95233.31;5158269;27;987;-57
2023/07/22 08:47:24;;;;;;;;;;;;;;;32.10;49.61;95232.56;5153994;27;1906;-57
2023/07/22 08:49:51;;;;;;;;;;;;;;;32.16;47.77;95230.56;5146253;27;1451;-58
2023/07/22 08:52:18;;;;;;;;;;;;;;;32.26;47.46;95226.84;5137369;27;1115;-57
2023/07/22 08:54:44;;;;;;;;;;;;;;;32.43;48.69;95220.81;5137600;27;1007;-57
2023/07/22 08:57:14;;;;;;;;;;;;;;;32.38;49.03;95215.34;5137103;27;1040;-57
2023/07/22 08:59:41;;;;;;;;;;;;;;;32.34;49.13;95217.88;5137293;27;1027;-57
2023/07/22 09:02:10;;;;;;;;;;;;;;;32.37;48.67;95211.75;5136957;27;1074;-57
2023/07/22 09:04:36;;;;;;;;;;;;;;;32.39;46.32;95211.47;5138477;27;1710;-57
2023/07/22 09:07:03;;;;;;;;;;;;;;;32.40;45.38;95202.84;5149979;27;1913;-57
2023/07/22 09:09:29;;;;;;;;;;;;;;;32.48;45.08;95210.47;5152858;27;1713;-57
2023/07/22 09:11:55;;;;;;;;;;;;;;;32.64;47.34;95207.53;5142501;27;1658;-57
2023/07/22 09:14:22;;;;;;;;;;;;;;;32.76;46.03;95204.28;5137150;27;1150;-57
2023/07/22 09:16:47;;;;;;;;;;;;;;;32.87;46.80;95203.81;5139907;27;1043;-57
2023/07/22 09:19:14;;;;;;;;;;;;;;;32.91;47.88;95201.25;5157508;27;949;-57
2023/07/22 09:21:40;;;;;;;;;;;;;;;32.97;46.60;95208.38;5157518;27;1103;-57
2023/07/22 09:24:19;;;;;;;;;;;;;;;32.96;45.49;95214.22;5144046;27;1051;-57
2023/07/22 09:26:45;;;;;;;;;;;;;;;33.03;45.25;95196.09;5136747;27;1996;-57
2023/07/22 09:29:11;;;;;;;;;;;;;;;33.05;43.20;95206.88;5136909;27;1248;-58
2023/07/22 09:31:48;;;;;;;;;;;;;;;33.05;44.82;95201.34;5136623;27;1105;-58
2023/07/22 09:34:14;;;;;;;;;;;;;;;33.14;44.85;95198.72;5136561;27;1047;-57
2023/07/22 09:36:53;;;;;;;;;;;;;;;33.11;41.28;95199.34;5136528;27;1099;-58
2023/07/22 09:39:19;;;;;;;;;;;;;;;33.12;43.39;95196.22;5136418;27;1026;-58
2023/07/22 09:41:45;;;;;;;;;;;;;;;33.14;44.86;95196.75;5136490;27;1094;-59
2023/07/22 09:44:12;;;;;;;;;;;;;;;33.28;44.65;95198.72;5136330;27;1040;-59
2023/07/22 09:46:38;;;;;;;;;;;;;;;33.34;43.66;95198.34;5118033;27;2008;-58
2023/07/22 09:49:07;;;;;;;;;;;;;;;33.47;45.42;95191.19;5120081;27;1099;-58
2023/07/22 09:51:37;;;;;;;;;;;;;;;33.56;44.33;95189.38;5115368;28;1040;-58
2023/07/22 09:54:04;;;;;;;;;;;;;;;33.64;45.36;95179.53;5115658;28;1047;-58
2023/07/22 09:56:30;;;;;;;;;;;;;;;33.73;43.10;95182.41;5115706;28;1053;-57
2023/07/22 09:58:58;;;;;;;;;;;;;;;33.78;43.94;95185.09;5115665;28;953;-58
2023/07/22 10:01:25;;;;;;;;;;;;;;;33.80;43.64;95178.09;5115274;28;1073;-58
2023/07/22 10:03:56;;;;;;;;;;;;;;;33.82;42.38;95186.91;5115419;28;1091;-58
2023/07/22 10:06:24;;;;;;;;;;;;;;;34.07;43.78;95181.16;5115558;28;1025;-59
2023/07/22 10:08:50;;;;;;;;;;;;;;;34.26;44.46;95181.88;5115607;28;963;-57
2023/07/22 10:11:16;;;;;;;;;;;;;;;34.21;43.89;95174.50;5115154;28;1057;-58
2023/07/22 10:13:42;;;;;;;;;;;;;;;34.12;44.64;95169.97;5115521;28;1070;-58
2023/07/22 10:16:08;;;;;;;;;;;;;;;34.07;45.21;95158.97;5115547;28;953;-57
2023/07/22 10:18:37;;;;;;;;;;;;;;;34.05;44.74;95164.81;5115069;28;1130;-58
2023/07/22 10:21:03;;;;;;;;;;;;;;;34.25;42.44;95162.78;5114959;28;1091;-58
2023/07/22 10:23:29;;;;;;;;;;;;;;;34.32;43.04;95155.66;5114965;28;1084;-58
2023/07/22 10:25:57;;;;;;;;;;;;;;;34.38;40.92;95165.50;5115155;28;1040;-58
2023/07/22 10:28:23;;;;;;;;;;;;;;;34.45;41.20;95161.47;5114576;28;1905;-59
2023/07/22 10:30:51;;;;;;;;;;;;;;;34.46;40.86;95163.13;5113982;28;1087;-57
2023/07/22 10:33:17;;;;;;;;;;;;;;;34.54;41.87;95162.38;5114868;28;1006;-58
2023/07/22 10:36:00;;;;;;;;;;;;;;;34.45;41.71;95153.16;5114840;28;1019;-58
2023/07/22 10:38:26;;;;;;;;;;;;;;;34.56;43.19;95147.03;5114747;28;1040;-58
2023/07/22 10:40:53;;;;;;;;;;;;;;;34.70;42.97;95149.81;5113836;27;1191;-58
2023/07/22 10:43:26;;;;;;;;;;;;;;;34.61;41.94;95155.25;5114726;28;948;-58
2023/07/22 10:45:56;;;;;;;;;;;;;;;34.67;41.34;95161.53;5114626;28;1040;-58
2023/07/22 10:48:25;;;;;;;;;;;;;;;34.71;39.52;95157.00;5124440;27;1993;-58
2023/07/22 10:50:52;;;;;;;;;;;;;;;34.66;40.59;95156.25;5130075;27;2216;-58
2023/07/22 10:53:24;;;;;;;;;;;;;;;34.66;40.48;95157.09;5140046;27;1221;-58
2023/07/22 10:56:08;;;;;;;;;;;;;;;34.74;41.52;95144.47;5138155;27;1932;-59
2023/07/22 10:58:44;;;;;;;;;;;;;;;34.79;40.09;95145.16;5141584;27;1914;-59
2023/07/22 11:01:24;;;;;;;;;;;;;;;34.82;41.77;95137.31;5138134;27;2771;-58
2023/07/22 11:04:05;;;;;;;;;;;;;;;34.86;40.54;95143.88;5142615;27;1920;-58
2023/07/22 11:06:31;;;;;;;;;;;;;;;35.02;41.02;95136.78;5118112;27;1901;-58
2023/07/22 11:08:57;;;;;;;;;;;;;;;35.21;43.88;95131.03;5135051;27;1014;-58
2023/07/22 11:11:39;;;;;;;;;;;;;;;35.28;41.05;95136.97;5134682;27;1056;-58
2023/07/22 11:14:20;;;;;;;;;;;;;;;35.27;42.24;95128.94;5135064;27;965;-57
2023/07/22 11:16:46;;;;;;;;;;;;;;;35.12;42.12;95125.41;5134891;27;991;-58
2023/07/22 11:19:14;;;;;;;;;;;;;;;35.07;40.70;95125.53;5134939;27;993;-59
2023/07/22 11:21:40;;;;;;;;;;;;;;;35.08;41.36;95123.56;5134565;27;958;-58
2023/07/22 11:24:07;;;;;;;;;;;;;;;35.03;40.98;95124.53;5134882;27;1059;-58
2023/07/22 11:26:33;;;;;;;;;;;;;;;35.09;41.87;95114.94;5134560;27;1967;-58
2023/07/22 11:28:59;;;;;;;;;;;;;;;35.07;40.38;95116.41;5142823;27;1882;-58
2023/07/22 11:31:32;;;;;;;;;;;;;;;35.09;39.56;95114.13;5142722;27;1775;-59
2023/07/22 11:33:58;;;;;;;;;;;;;;;35.28;40.33;95116.69;5143808;27;1958;-59
2023/07/22 11:36:26;;;;;;;;;;;;;;;35.32;41.04;95103.78;5141817;27;1620;-58
2023/07/22 11:38:52;;;;;;;;;;;;;;;35.16;40.80;95106.97;5142147;27;1827;-57
2023/07/22 11:44:41;;;;;;;;;;;;;;;35.27;36.89;95115.88;5134122;27;1838;-57
2023/07/22 11:47:11;;;;;;;;;;;;;;;35.27;37.97;95106.72;5142867;27;1918;-58
2023/07/22 11:49:39;;;;;;;;;;;;;;;35.19;36.51;95117.47;5141381;27;1809;-58
2023/07/22 11:52:15;;;;;;;;;;;;;;;35.17;38.15;95102.22;5141120;27;1779;-58
2023/07/22 11:54:42;;;;;;;;;;;;;;;35.29;36.59;95107.22;5153554;27;1032;-59
2023/07/22 11:57:21;;;;;;;;;;;;;;;35.17;37.16;95091.09;5139455;27;1074;-58
2023/07/22 11:59:48;;;;;;;;;;;;;;;34.97;38.60;95103.59;5134407;28;1041;-58
2023/07/22 12:02:15;;;;;;;;;;;;;;;34.99;38.00;95102.13;5133508;28;1118;-58
2023/07/22 12:04:40;;;;;;;;;;;;;;;35.19;38.99;95102.75;5134254;28;1011;-58
2023/07/22 12:07:20;;;;;;;;;;;;;;;35.32;37.45;95093.50;5133883;27;1918;-58
2023/07/22 12:09:48;;;;;;;;;;;;;;;35.13;36.94;95095.66;5137000;27;1090;-57
2023/07/22 12:12:14;;;;;;;;;;;;;;;34.92;38.99;95090.66;5138437;27;998;-57
2023/07/22 12:14:41;;;;;;;;;;;;;;;35.18;37.98;95101.94;5138508;27;1051;-57
2023/07/22 12:17:08;;;;;;;;;;;;;;;35.58;39.64;95095.56;5138050;27;1071;-57
2023/07/22 12:19:35;;;;;;;;;;;;;;;35.71;38.40;95096.63;5138019;27;1090;-57
2023/07/22 12:22:01;;;;;;;;;;;;;;;35.89;36.18;95094.69;5119030;27;1056;-57
2023/07/22 12:24:28;;;;;;;;;;;;;;;35.71;36.53;95085.50;5155560;27;1301;-58
2023/07/22 12:26:54;;;;;;;;;;;;;;;35.42;36.60;95083.22;5158783;27;1913;-58
2023/07/22 12:29:21;;;;;;;;;;;;;;;35.57;38.06;95085.56;5147036;27;1176;-59
2023/07/22 12:31:48;;;;;;;;;;;;;;;35.67;36.72;95088.06;5137949;27;1040;-58
2023/07/22 12:34:14;;;;;;;;;;;;;;;35.81;39.54;95073.25;5137474;27;1036;-58
2023/07/22 12:36:40;;;;;;;;;;;;;;;35.76;38.46;95075.03;5137856;27;1025;-58
2023/07/22 12:39:06;;;;;;;;;;;;;;;35.77;38.16;95073.88;5137685;27;1040;-57
2023/07/22 12:41:32;;;;;;;;;;;;;;;35.72;39.81;95062.94;5137597;27;1074;-58
2023/07/22 12:43:58;;;;;;;;;;;;;;;35.49;37.75;95059.38;5137537;27;1089;-57
2023/07/22 12:46:24;;;;;;;;;;;;;;;35.55;38.62;95062.84;5137535;27;1036;-56
2023/07/22 12:48:50;;;;;;;;;;;;;;;35.54;40.33;95056.47;5137259;27;1905;-56
2023/07/22 12:51:16;;;;;;;;;;;;;;;35.69;37.68;95066.34;5138344;27;1751;-58
2023/07/22 12:53:42;;;;;;;;;;;;;;;35.74;37.36;95070.94;5148888;27;1922;-57
2023/07/22 12:56:08;;;;;;;;;;;;;;;35.58;38.71;95068.56;5137349;27;1178;-58
2023/07/22 12:58:34;;;;;;;;;;;;;;;35.61;38.72;95053.22;5137089;27;1504;-58
2023/07/22 13:01:00;;;;;;;;;;;;;;;35.54;37.14;95056.47;5144802;27;2023;-58